Portada
METAR-TAF:

METAR-TAF

Aeroports :

Teheran, Iran

latitud: 35-41N, longitud: 051-21E, altitud: 1204 m

Observació

L'informe es va fer fa 26 minuts, a les 08:00 UTC
Vent 6 kt del Sud-Oest
Temperatura 16°C
Humitat 25%
Pressió 1025 hPa
Visibilitat: 3500 m
calitja

METAR: OIII 120800Z 22006KT 3500 HZ NSC 16/M04 Q1025 A3028 NOSIG

Hora: 11:56 (08:26 UTC)

Pronòstic

L'informe es va fer fa 2 hores i 1 minuts, a les 06:25 UTC
Pronòstic vàlid del 12 a les 06 UTC al 13 a les 12 UTC
Vent 6 kt del Sud-Oest
Visibilitat: 5000 m
calitja
Temporalment
l' 12 a les 06 UTC al 12 a les 09 UTC
Visibilitat: 2500 m
calitja
Evolucionant progressivament
l' 12 a les 12 UTC al 12 a les 14 UTC
Visibilitat: 6000 m
Evolucionant progressivament
l' 12 a les 16 UTC al 12 a les 18 UTC
Visibilitat: 5000 m
calitja
Temporalment
l' 13 a les 04 UTC al 13 a les 09 UTC
Visibilitat: 2000 m
calitja

TAF: OIII 120625Z 1206/1312 22006KT 5000 HZ NSC TEMPO 1206/1209 2500 HZ BECMG 1212/1214 6000 BECMG 1216/1218 5000 HZ TEMPO 1304/1309 2000 HZ

Observacions i pronòstics meteorològics de més de 4000 aeroports (METAR i TAF).

Les estacions disponibles són els punts grocs i vermells al mapa.

Posi el ratolí al punt desitjat per veure el nom de l'estació.

Feu clic per veure les observacions i els pronòstics meteorològics.

Per canviar el mapa: feu clic els botons verds amb una creu de color negre per apropar; al botó verd amb un guió per allunyar la imatge; o en les fletxes verdes per a mapes adjacents.


METAR-TAF: